Time;durP1;ratioP1;P1;durP2;ratioP2;P2;SDS_P1;SDS_P2;PMS_P1;PMS_P2;Temp;Humidity;BMP_temperature;BMP_pressure;BME280_temperature;BME280_humidity;BME280_pressure;Samples;Min_cycle;Max_cycle;Signal;HPM_P1;HPM_P2
2022/02/06 00:02:26;;;;;;;13.17;3.33;;;;;;;6.64;50.37;98014.50;5046198;28;20432;-72
2022/02/06 00:04:51;;;;;;;11.60;3.70;;;;;;;6.65;50.78;97997.94;5052241;28;20185;-72
2022/02/06 00:07:17;;;;;;;9.70;4.33;;;;;;;6.68;50.60;98003.75;5038577;28;20440;-72
2022/02/06 00:09:45;;;;;;;10.77;3.77;;;;;;;6.67;50.80;98002.09;5033605;28;20335;-72
2022/02/06 00:12:10;;;;;;;11.63;3.50;;;;;;;6.58;50.86;97993.16;5016897;28;20679;-72
2022/02/06 00:14:36;;;;;;;9.13;3.17;;;;;;;6.69;50.84;97994.16;5033477;28;20428;-71
2022/02/06 00:17:02;;;;;;;8.03;3.30;;;;;;;6.81;50.65;97982.06;5034239;28;20290;-72
2022/02/06 00:19:27;;;;;;;10.60;3.07;;;;;;;6.83;50.75;97980.16;5033683;28;20184;-72
2022/02/06 00:21:53;;;;;;;10.43;3.40;;;;;;;6.84;50.37;97977.44;5016272;28;20472;-73
2022/02/06 00:24:27;;;;;;;8.67;3.10;;;;;;;6.82;50.52;97973.28;5034011;28;20287;-73
2022/02/06 00:26:59;;;;;;;8.40;3.50;;;;;;;6.74;50.75;97971.22;5037699;28;20195;-74
2022/02/06 00:29:30;;;;;;;7.70;2.97;;;;;;;6.75;50.90;97970.28;5033407;28;20784;-71
2022/02/06 00:32:00;;;;;;;8.17;3.00;;;;;;;6.73;51.00;97960.00;5037510;28;20443;-74
2022/02/06 00:35:14;;;;;;;6.70;2.67;;;;;;;6.70;51.28;97964.56;5033697;28;20735;-73
2022/02/06 00:40:16;;;;;;;9.10;3.60;;;;;;;6.89;51.44;97970.13;5033301;28;20451;-73
2022/02/06 00:42:41;;;;;;;9.50;3.13;;;;;;;6.99;51.29;97961.66;5033554;28;20433;-73
2022/02/06 00:45:07;;;;;;;11.43;2.70;;;;;;;6.94;50.70;97959.38;5033717;28;20428;-72
2022/02/06 00:47:33;;;;;;;6.20;2.40;;;;;;;7.11;50.96;97957.34;5043044;28;20215;-73
2022/02/06 00:49:59;;;;;;;5.90;2.40;;;;;;;6.88;50.74;97946.78;5052753;28;20442;-73
2022/02/06 00:52:31;;;;;;;5.87;2.33;;;;;;;7.01;50.68;97957.16;5054016;28;20547;-72
2022/02/06 00:54:57;;;;;;;9.23;2.50;;;;;;;7.04;50.37;97947.34;5051916;28;20984;-73
2022/02/06 00:57:24;;;;;;;6.37;2.43;;;;;;;7.07;50.46;97941.06;5038724;28;20429;-72
2022/02/06 00:59:49;;;;;;;9.73;2.07;;;;;;;7.08;50.20;97932.31;5033053;28;20272;-73
2022/02/06 01:02:15;;;;;;;6.03;2.20;;;;;;;6.98;50.60;97931.31;5033222;28;20430;-73
2022/02/06 01:04:41;;;;;;;6.40;2.23;;;;;;;6.83;50.75;97921.06;5034138;28;20221;-73
2022/02/06 01:07:06;;;;;;;2.40;1.67;;;;;;;6.99;50.60;97918.19;5033800;28;20254;-73
2022/02/06 01:09:31;;;;;;;4.10;2.03;;;;;;;6.58;51.21;97922.81;5032416;28;20441;-71
2022/02/06 01:11:57;;;;;;;8.13;1.83;;;;;;;6.70;51.36;97922.88;5032873;28;20205;-71
2022/02/06 01:19:56;;;;;;;3.77;1.77;;;;;;;6.98;50.75;97906.09;5032685;28;20442;-71
2022/02/06 01:22:25;;;;;;;5.67;2.60;;;;;;;6.81;50.86;97915.13;5033258;28;20430;-71
2022/02/06 01:25:05;;;;;;;4.37;2.00;;;;;;;6.96;50.75;97907.13;5033245;28;20421;-72
2022/02/06 01:27:50;;;;;;;8.87;2.30;;;;;;;6.84;51.07;97912.31;5016892;28;20467;-72
2022/02/06 01:30:20;;;;;;;5.57;2.07;;;;;;;6.99;51.06;97907.75;5040601;28;20450;-72
2022/02/06 01:32:52;;;;;;;8.27;2.07;;;;;;;6.98;51.28;97910.47;5032597;28;20806;-73
2022/02/06 01:35:27;;;;;;;5.00;2.27;;;;;;;7.10;50.94;97900.94;5047954;28;20519;-73
2022/02/06 01:38:04;;;;;;;4.70;2.10;;;;;;;7.09;50.33;97902.69;5024871;28;20916;-73
2022/02/06 01:43:34;;;;;;;3.87;1.80;;;;;;;7.12;50.63;97905.06;5052571;28;20550;-72
2022/02/06 02:04:38;;;;;;;4.20;1.83;;;;;;;7.39;49.98;97903.97;5039015;28;20489;-71
2022/02/06 02:46:52;;;;;;;4.70;1.80;;;;;;;7.26;50.30;97822.38;5083642;28;20421;-72
2022/02/06 02:49:20;;;;;;;4.23;1.70;;;;;;;7.25;50.26;97818.13;5050793;28;20785;-72
2022/02/06 02:51:48;;;;;;;4.90;1.90;;;;;;;7.34;50.17;97814.81;5065987;28;20957;-72
2022/02/06 02:54:21;;;;;;;5.33;1.80;;;;;;;7.30;50.06;97801.19;5051215;28;20789;-73
2022/02/06 02:57:00;;;;;;;6.60;1.70;;;;;;;7.28;50.28;97797.03;5040345;28;20502;-73
2022/02/06 02:59:36;;;;;;;2.03;1.40;;;;;;;7.30;50.42;97792.53;5064547;28;20426;-73
2022/02/06 03:02:04;;;;;;;7.30;1.87;;;;;;;7.23;50.27;97779.94;5051167;28;20447;-73
2022/02/06 03:04:32;;;;;;;3.77;1.90;;;;;;;7.19;50.32;97778.53;5033095;28;20430;-73
2022/02/06 03:06:57;;;;;;;2.73;1.60;;;;;;;7.23;50.04;97774.75;5046199;28;20423;-73
2022/02/06 03:09:23;;;;;;;4.00;1.53;;;;;;;7.05;50.64;97769.16;5045308;28;20435;-73
2022/02/06 03:11:49;;;;;;;2.70;1.23;;;;;;;7.12;49.99;97755.66;5039011;28;20452;-72
2022/02/06 03:14:20;;;;;;;4.40;1.40;;;;;;;7.17;50.01;97762.19;5013522;28;20428;-72
2022/02/06 03:17:01;;;;;;;4.10;1.73;;;;;;;6.81;51.14;97757.97;5030553;28;20224;-73
2022/02/06 03:19:27;;;;;;;10.03;2.23;;;;;;;7.05;50.67;97744.88;5030513;28;20481;-72
2022/02/06 03:21:52;;;;;;;4.70;1.50;;;;;;;7.10;51.00;97740.13;5043183;28;20435;-72
2022/02/06 03:24:25;;;;;;;2.80;1.73;;;;;;;7.12;50.46;97734.81;5050935;28;20670;-72
2022/02/06 03:26:53;;;;;;;6.10;1.77;;;;;;;6.98;50.91;97744.50;5036617;28;20671;-71
2022/02/06 03:29:21;;;;;;;5.90;2.20;;;;;;;7.10;50.59;97721.88;5030690;28;20476;-71
2022/02/06 03:31:48;;;;;;;4.30;1.80;;;;;;;7.00;50.96;97728.75;5041921;28;20503;-72
2022/02/06 03:34:14;;;;;;;5.83;1.80;;;;;;;6.80;51.38;97725.88;5050294;28;20414;-71
2022/02/06 03:36:39;;;;;;;4.77;1.90;;;;;;;6.89;51.41;97719.13;5050452;28;20467;-71
2022/02/06 03:39:05;;;;;;;3.20;1.53;;;;;;;6.81;51.87;97722.31;5053747;28;20447;-71
2022/02/06 03:41:41;;;;;;;5.17;2.00;;;;;;;6.61;52.32;97734.25;5054788;28;20204;-71
2022/02/06 03:44:21;;;;;;;4.10;1.47;;;;;;;7.06;51.27;97730.88;5054913;28;20437;-71
2022/02/06 03:46:58;;;;;;;8.67;1.70;;;;;;;7.17;51.43;97740.47;5054203;28;20553;-73
2022/02/06 03:49:33;;;;;;;6.30;1.70;;;;;;;7.24;51.07;97731.25;5036324;28;20430;-72
2022/02/06 03:51:58;;;;;;;4.67;1.70;;;;;;;7.28;50.51;97735.28;5054409;28;20950;-72
2022/02/06 03:54:24;;;;;;;5.87;1.60;;;;;;;7.37;51.06;97736.34;5054146;28;20472;-72
2022/02/06 03:56:52;;;;;;;5.57;1.50;;;;;;;7.40;50.54;97735.25;5044215;28;20204;-72
2022/02/06 03:59:18;;;;;;;3.53;1.50;;;;;;;7.46;50.40;97729.59;5036670;28;20203;-73
2022/02/06 04:01:43;;;;;;;2.07;1.40;;;;;;;7.48;50.77;97731.13;5054146;28;20489;-73
2022/02/06 04:04:08;;;;;;;6.10;1.70;;;;;;;7.56;50.78;97725.31;5054318;28;20181;-73
2022/02/06 04:06:34;;;;;;;5.10;2.63;;;;;;;7.50;50.05;97718.78;5036233;28;20191;-73
2022/02/06 04:09:00;;;;;;;5.17;1.50;;;;;;;7.62;49.83;97701.34;5053977;28;20251;-73
2022/02/06 04:11:35;;;;;;;4.70;1.50;;;;;;;7.59;50.19;97705.97;5086239;28;20220;-73
2022/02/06 04:14:21;;;;;;;3.57;1.47;;;;;;;7.58;49.66;97704.31;5048651;28;20554;-73
2022/02/06 04:16:52;;;;;;;4.80;2.00;;;;;;;7.69;49.49;97693.84;5034042;28;20460;-73
2022/02/06 04:21:43;;;;;;;5.50;1.60;;;;;;;7.57;49.79;97687.00;5033177;28;20449;-73
2022/02/06 04:24:09;;;;;;;5.27;2.10;;;;;;;7.66;49.69;97689.72;5049359;28;20303;-72
2022/02/06 04:26:35;;;;;;;5.77;1.80;;;;;;;7.64;50.09;97682.97;5048757;28;20259;-72
2022/02/06 04:29:00;;;;;;;5.50;1.73;;;;;;;7.68;49.51;97684.38;5041812;28;20180;-72
2022/02/06 04:31:25;;;;;;;5.20;1.97;;;;;;;7.76;49.08;97681.97;5052433;28;20201;-72
2022/02/06 04:33:51;;;;;;;3.73;1.40;;;;;;;7.72;49.18;97669.31;5053533;28;20185;-72
2022/02/06 04:36:19;;;;;;;4.80;1.50;;;;;;;7.63;49.48;97663.03;5053755;28;20201;-71
2022/02/06 05:14:12;;;;;;;2.77;1.57;;;;;;;7.65;50.66;97624.63;5033745;28;20417;-72
2022/02/06 05:22:00;;;;;;;6.43;1.80;;;;;;;7.17;51.75;97624.03;5032412;28;20454;-71
2022/02/06 05:24:48;;;;;;;7.90;1.90;;;;;;;7.43;51.15;97605.47;5040340;28;20429;-72
2022/02/06 05:27:49;;;;;;;4.23;1.80;;;;;;;7.30;51.25;97612.63;5040723;28;20451;-73
2022/02/06 05:30:19;;;;;;;6.00;1.67;;;;;;;7.19;51.47;97596.03;5032143;28;20443;-72
2022/02/06 05:35:22;;;;;;;6.27;2.00;;;;;;;7.35;51.62;97595.66;5032462;28;20460;-73
2022/02/06 05:37:47;;;;;;;3.50;1.67;;;;;;;7.31;51.30;97606.47;5047408;28;20926;-72
2022/02/06 05:40:13;;;;;;;3.23;1.20;;;;;;;7.42;51.58;97606.44;5032163;28;20535;-72
2022/02/06 05:42:39;;;;;;;5.33;1.63;;;;;;;7.51;51.14;97608.28;5031835;28;20200;-73
2022/02/06 05:45:05;;;;;;;2.43;1.60;;;;;;;7.66;50.72;97618.44;5032809;28;20182;-72
2022/02/06 05:47:33;;;;;;;3.43;2.27;;;;;;;7.38;51.52;97637.13;5048464;28;20229;-72
2022/02/06 05:49:58;;;;;;;6.13;2.10;;;;;;;7.40;51.21;97628.34;5036926;28;20424;-72
2022/02/06 05:52:24;;;;;;;12.00;2.47;;;;;;;7.18;52.31;97646.50;5043134;28;20451;-72
2022/02/06 05:54:49;;;;;;;4.63;1.63;;;;;;;7.42;51.86;97648.16;5039836;28;20333;-72
2022/02/06 05:57:15;;;;;;;22.70;3.13;;;;;;;7.25;51.97;97653.84;5032740;28;20190;-71
2022/02/06 05:59:40;;;;;;;8.43;1.80;;;;;;;6.82;52.97;97651.00;5031365;28;20183;-71
2022/02/06 06:02:06;;;;;;;3.80;1.67;;;;;;;7.03;52.60;97643.31;5030592;28;20641;-71
2022/02/06 06:04:32;;;;;;;4.10;1.90;;;;;;;7.17;52.38;97624.03;5031449;28;20183;-71
2022/02/06 06:06:57;;;;;;;1.60;1.50;;;;;;;7.17;52.16;97629.22;5014194;28;20237;-72
2022/02/06 06:09:23;;;;;;;7.07;2.17;;;;;;;7.00;52.73;97624.50;5046641;28;20285;-72
2022/02/06 06:11:48;;;;;;;4.70;1.90;;;;;;;7.29;52.52;97624.00;5038932;28;20198;-72
2022/02/06 06:14:14;;;;;;;7.60;1.77;;;;;;;7.28;52.13;97614.50;5013500;28;20205;-72
2022/02/06 06:16:39;;;;;;;5.13;1.97;;;;;;;7.29;51.98;97610.97;5034806;28;20716;-72
2022/02/06 06:19:05;;;;;;;6.10;2.40;;;;;;;7.29;52.15;97618.78;5036629;28;20673;-72
2022/02/06 06:21:36;;;;;;;3.10;1.60;;;;;;;7.32;52.20;97615.91;5038020;28;20254;-72
2022/02/06 06:24:02;;;;;;;6.20;1.90;;;;;;;7.43;51.71;97613.31;5045105;28;20182;-72
2022/02/06 06:26:33;;;;;;;7.73;1.77;;;;;;;7.45;51.51;97616.59;5041899;28;20805;-72
2022/02/06 06:28:58;;;;;;;5.33;1.67;;;;;;;7.60;51.33;97611.94;5031048;28;20175;-72
2022/02/06 06:31:26;;;;;;;5.67;1.40;;;;;;;7.37;52.21;97614.59;5030515;28;20451;-72
2022/02/06 06:33:51;;;;;;;7.43;1.97;;;;;;;7.31;52.44;97629.94;5046348;28;20189;-73
2022/02/06 06:36:20;;;;;;;4.97;1.63;;;;;;;7.41;52.21;97603.94;5046680;28;20469;-72
2022/02/06 06:38:46;;;;;;;4.43;1.33;;;;;;;7.44;51.97;97599.28;5039169;28;20643;-72
2022/02/06 06:41:11;;;;;;;8.37;1.67;;;;;;;7.34;52.03;97606.19;5031812;28;20441;-72
2022/02/06 06:43:37;;;;;;;6.83;1.63;;;;;;;7.26;52.47;97600.75;5039271;28;21006;-72
2022/02/06 06:46:02;;;;;;;6.70;1.80;;;;;;;7.48;52.18;97574.63;5028074;28;20771;-72
2022/02/06 06:48:27;;;;;;;6.20;1.50;;;;;;;7.49;51.88;97581.50;5038852;28;20196;-72
2022/02/06 06:50:53;;;;;;;2.80;1.53;;;;;;;7.42;51.86;97569.91;5030734;28;20278;-72
2022/02/06 06:53:19;;;;;;;6.43;1.70;;;;;;;7.47;52.28;97572.97;5030807;28;20187;-72
2022/02/06 06:55:49;;;;;;;5.37;2.13;;;;;;;7.42;52.23;97571.69;5029234;28;20207;-72
2022/02/06 06:58:20;;;;;;;4.50;2.03;;;;;;;7.37;52.62;97580.69;5031261;28;20283;-72
2022/02/06 07:00:57;;;;;;;4.43;1.50;;;;;;;7.29;52.62;97587.50;5039299;28;20516;-72
2022/02/06 07:03:23;;;;;;;5.00;1.67;;;;;;;7.51;51.95;97578.75;5030919;28;21098;-72
2022/02/06 07:05:49;;;;;;;8.30;1.80;;;;;;;6.83;53.23;97573.69;5031240;28;20421;-72
2022/02/06 07:08:16;;;;;;;4.83;2.00;;;;;;;7.20;52.79;97576.81;5013124;28;20958;-72
2022/02/06 07:10:42;;;;;;;6.43;1.90;;;;;;;7.46;52.25;97581.75;5030531;28;20681;-72
2022/02/06 07:13:07;;;;;;;4.10;1.60;;;;;;;7.32;52.22;97575.03;5030988;28;20430;-72
2022/02/06 07:15:33;;;;;;;5.10;1.40;;;;;;;7.50;52.49;97572.72;5031081;28;20532;-72
2022/02/06 07:17:58;;;;;;;6.30;2.30;;;;;;;7.28;52.78;97567.59;5030794;28;20338;-72
2022/02/06 07:20:24;;;;;;;4.07;1.47;;;;;;;7.57;51.99;97564.38;5030912;28;20229;-72
2022/02/06 07:22:50;;;;;;;5.27;1.63;;;;;;;7.70;51.45;97572.88;5045860;28;20183;-72
2022/02/06 07:25:15;;;;;;;5.90;1.33;;;;;;;7.52;52.22;97556.94;5046474;28;20181;-72
2022/02/06 07:27:45;;;;;;;6.43;2.07;;;;;;;7.31;52.44;97556.91;5045707;28;20558;-72
2022/02/06 07:30:11;;;;;;;3.30;1.40;;;;;;;7.43;52.54;97561.16;5045404;28;20581;-72
2022/02/06 07:32:38;;;;;;;4.07;1.60;;;;;;;7.36;52.79;97559.97;5050596;28;20515;-72
2022/02/06 07:35:09;;;;;;;3.10;1.83;;;;;;;7.48;52.72;97548.53;5050737;28;20189;-72
2022/02/06 07:37:41;;;;;;;8.87;1.73;;;;;;;7.48;52.21;97543.31;5050661;28;20426;-72
2022/02/06 07:40:07;;;;;;;7.83;1.77;;;;;;;7.63;52.25;97541.25;5035500;28;20454;-72
2022/02/06 07:42:33;;;;;;;5.23;1.67;;;;;;;7.65;52.04;97526.28;5030810;28;20510;-72
2022/02/06 07:44:59;;;;;;;2.13;1.40;;;;;;;7.65;52.23;97504.63;5046117;28;20428;-72
2022/02/06 07:47:25;;;;;;;14.97;2.70;;;;;;;7.97;51.61;97506.31;5030342;28;20548;-72
2022/02/06 07:49:53;;;;;;;7.70;1.70;;;;;;;7.90;51.18;97489.53;5030317;28;20201;-72
2022/02/06 07:52:21;;;;;;;4.97;1.93;;;;;;;7.98;51.41;97505.34;5030611;28;20549;-72
2022/02/06 07:54:47;;;;;;;2.43;1.50;;;;;;;8.08;51.74;97502.81;5030209;28;20428;-73
2022/02/06 07:57:12;;;;;;;8.67;1.87;;;;;;;8.00;51.65;97488.59;5030514;28;20431;-72
2022/02/06 07:59:38;;;;;;;7.70;1.80;;;;;;;8.04;51.47;97490.97;5030182;28;20450;-72
2022/02/06 08:02:06;;;;;;;8.83;2.10;;;;;;;8.03;51.66;97492.75;5038617;28;20202;-72
2022/02/06 08:04:31;;;;;;;5.57;1.83;;;;;;;8.00;51.29;97477.34;5047395;28;20530;-72
2022/02/06 08:06:57;;;;;;;3.43;1.50;;;;;;;8.19;50.96;97486.25;5061455;28;20419;-71
2022/02/06 08:09:50;;;;;;;8.40;1.60;;;;;;;8.09;51.18;97479.19;5045470;28;20724;-71
2022/02/06 08:12:09;;;;;;;5.73;1.83;;;;;;;8.17;51.27;97477.72;5038217;28;20193;-71
2022/02/06 08:14:54;;;;;;;8.30;2.30;;;;;;;8.20;50.76;97461.75;5047963;28;20433;-71
2022/02/06 08:17:40;;;;;;;4.27;1.67;;;;;;;8.27;50.68;97465.53;5050853;28;20788;-72
2022/02/06 08:20:08;;;;;;;10.27;2.30;;;;;;;8.11;51.43;97472.03;5044075;28;20530;-72
2022/02/06 08:22:34;;;;;;;5.97;1.70;;;;;;;8.24;50.78;97464.00;5049819;28;20429;-72
2022/02/06 08:24:59;;;;;;;2.67;1.37;;;;;;;8.08;51.47;97474.91;5051745;28;20436;-72
2022/02/06 08:27:26;;;;;;;5.37;1.77;;;;;;;7.83;52.03;97463.94;5036108;28;20187;-72
2022/02/06 08:29:52;;;;;;;9.63;3.50;;;;;;;8.27;50.80;97436.81;5049199;28;20242;-72
2022/02/06 08:32:20;;;;;;;13.80;2.47;;;;;;;8.28;51.48;97449.72;5049310;28;20926;-72
2022/02/06 08:34:45;;;;;;;5.13;2.47;;;;;;;8.60;50.01;97443.53;5036987;28;20843;-72
2022/02/06 08:37:11;;;;;;;5.83;2.67;;;;;;;8.71;50.11;97442.56;5053424;28;20452;-71
2022/02/06 08:39:38;;;;;;;7.83;1.70;;;;;;;8.74;49.69;97451.97;5035226;28;20216;-72
2022/02/06 08:42:06;;;;;;;3.13;1.50;;;;;;;8.74;49.37;97442.31;5052483;28;20803;-72
2022/02/06 08:44:33;;;;;;;4.73;1.90;;;;;;;9.51;48.20;97441.66;5053474;28;20425;-72
2022/02/06 08:46:59;;;;;;;11.83;3.67;;;;;;;9.86;47.66;97445.44;5053684;28;20420;-72
2022/02/06 08:49:24;;;;;;;19.57;2.63;;;;;;;9.90;47.16;97431.09;5052755;28;21062;-72
2022/02/06 08:51:51;;;;;;;8.60;1.97;;;;;;;10.28;45.69;97442.41;5053451;28;20443;-72
2022/02/06 08:54:17;;;;;;;4.13;1.73;;;;;;;11.04;44.26;97427.34;5085514;28;20287;-73
2022/02/06 08:56:42;;;;;;;8.20;2.80;;;;;;;11.34;43.85;97443.69;5041453;28;20571;-72
2022/02/06 08:59:09;;;;;;;8.70;2.57;;;;;;;10.57;44.65;97440.63;5033158;28;20271;-72
2022/02/06 09:01:36;;;;;;;7.43;1.90;;;;;;;10.67;44.63;97422.25;5017013;28;20261;-72
2022/02/06 09:04:02;;;;;;;6.90;2.30;;;;;;;10.26;45.56;97418.16;5053357;28;20419;-72
2022/02/06 09:06:27;;;;;;;6.23;1.93;;;;;;;10.15;45.88;97431.44;5052664;28;21109;-72
2022/02/06 09:08:56;;;;;;;10.03;2.30;;;;;;;10.18;45.75;97419.81;5052691;28;20203;-73
2022/02/06 09:11:23;;;;;;;10.57;1.60;;;;;;;10.24;45.80;97424.50;5053053;28;20202;-74
2022/02/06 09:13:49;;;;;;;5.97;1.90;;;;;;;10.01;46.54;97429.28;5052858;28;20432;-74
2022/02/06 09:16:14;;;;;;;4.50;1.73;;;;;;;10.17;46.05;97428.66;5053140;28;20467;-73
2022/02/06 09:18:40;;;;;;;4.07;1.63;;;;;;;9.65;47.26;97430.75;5052639;28;20222;-73
2022/02/06 09:21:05;;;;;;;3.80;1.47;;;;;;;9.18;47.76;97428.06;5046544;28;20198;-73
2022/02/06 09:23:31;;;;;;;3.50;1.50;;;;;;;9.30;48.20;97428.72;5041682;28;20649;-72
2022/02/06 09:25:56;;;;;;;6.17;1.67;;;;;;;9.40;47.58;97439.19;5041023;28;20260;-73
2022/02/06 09:28:22;;;;;;;7.50;1.73;;;;;;;9.48;48.10;97411.38;5022100;28;20208;-73
2022/02/06 09:30:47;;;;;;;5.47;1.47;;;;;;;9.42;48.05;97418.94;5035250;28;20206;-72
2022/02/06 09:35:38;;;;;;;7.00;1.80;;;;;;;9.12;49.13;97408.50;5052150;28;20251;-73
2022/02/06 09:38:04;;;;;;;3.93;1.40;;;;;;;8.69;49.95;97388.81;5039947;28;20569;-72
2022/02/06 09:40:37;;;;;;;5.00;1.53;;;;;;;9.02;49.08;97391.97;5041137;28;20335;-73
2022/02/06 09:43:04;;;;;;;4.40;1.30;;;;;;;8.90;49.75;97404.38;5067319;28;20416;-73
2022/02/06 09:45:30;;;;;;;3.60;1.37;;;;;;;8.89;49.61;97385.22;5051824;28;20426;-73
2022/02/06 09:47:57;;;;;;;4.33;1.63;;;;;;;9.29;49.21;97388.69;5028766;28;20527;-72
2022/02/06 09:50:22;;;;;;;3.70;1.20;;;;;;;9.47;48.17;97380.09;5046889;28;20569;-72
2022/02/06 09:52:48;;;;;;;10.33;2.50;;;;;;;9.40;49.02;97369.38;5034188;28;20910;-72
2022/02/06 09:55:18;;;;;;;6.73;1.80;;;;;;;9.62;48.57;97373.44;5052956;28;20282;-72
2022/02/06 10:00:29;;;;;;;9.63;2.27;;;;;;;9.61;48.78;97366.56;5040653;28;20451;-73
2022/02/06 10:03:02;;;;;;;5.23;1.47;;;;;;;9.26;49.44;97343.69;5032744;28;20513;-73
2022/02/06 10:05:33;;;;;;;8.00;1.70;;;;;;;9.35;49.24;97341.00;5048816;28;21091;-73
2022/02/06 10:08:31;;;;;;;2.50;1.30;;;;;;;9.55;48.96;97338.38;5052249;28;20480;-73
2022/02/06 10:11:14;;;;;;;6.30;1.97;;;;;;;9.70;48.92;97319.59;5038067;28;20536;-73
2022/02/06 10:13:40;;;;;;;12.90;1.90;;;;;;;9.74;48.55;97327.00;5051811;28;20537;-73
2022/02/06 10:16:13;;;;;;;3.70;1.50;;;;;;;9.63;48.81;97327.19;5083860;28;20868;-73
2022/02/06 10:18:40;;;;;;;6.23;1.80;;;;;;;9.77;48.57;97302.31;5041084;28;20490;-72
2022/02/06 10:21:08;;;;;;;3.80;1.70;;;;;;;9.87;48.53;97302.28;5031820;28;20440;-73
2022/02/06 10:23:43;;;;;;;8.40;1.87;;;;;;;9.64;48.79;97293.00;5046443;28;20501;-72
2022/02/06 10:26:52;;;;;;;2.53;1.60;;;;;;;9.44;48.98;97281.00;5031901;28;20497;-73
2022/02/06 10:32:00;;;;;;;4.87;1.50;;;;;;;9.21;50.24;97279.53;5051114;28;20441;-73
2022/02/06 10:34:27;;;;;;;3.30;1.50;;;;;;;9.42;49.47;97270.66;5051091;28;20455;-73
2022/02/06 10:37:16;;;;;;;6.28;2.00;;;;;;;9.50;49.66;97259.47;5046199;28;20950;-73
2022/02/06 10:40:05;;;;;;;4.20;1.73;;;;;;;9.79;48.51;97258.53;5046902;28;20198;-73
2022/02/06 10:42:38;;;;;;;4.30;1.70;;;;;;;9.75;48.42;97244.06;5031185;28;20427;-73
2022/02/06 10:45:13;;;;;;;6.50;1.47;;;;;;;9.75;48.80;97246.69;5031724;28;20855;-73
2022/02/06 10:47:40;;;;;;;4.90;1.57;;;;;;;9.84;48.97;97238.78;5049518;28;20989;-73
2022/02/06 10:50:08;;;;;;;7.13;2.37;;;;;;;9.80;49.17;97236.63;5016755;28;20484;-73
2022/02/06 10:52:34;;;;;;;6.90;1.70;;;;;;;10.04;48.72;97211.66;5050703;28;20428;-73
2022/02/06 10:55:00;;;;;;;4.30;1.47;;;;;;;10.02;48.21;97208.34;5061677;28;20475;-72
2022/02/06 10:57:28;;;;;;;5.43;1.50;;;;;;;10.09;48.60;97204.16;5013543;28;20181;-71
2022/02/06 10:59:54;;;;;;;3.83;1.23;;;;;;;10.64;47.57;97191.88;5034849;28;20421;-71
2022/02/06 11:02:20;;;;;;;4.50;1.17;;;;;;;10.99;46.58;97182.25;5051105;28;20433;-71
2022/02/06 11:05:17;;;;;;;2.70;1.33;;;;;;;11.02;46.11;97155.72;5050938;28;20452;-71
2022/02/06 11:07:54;;;;;;;4.67;1.60;;;;;;;10.81;46.92;97170.06;5050589;28;20436;-73
2022/02/06 11:10:21;;;;;;;4.00;1.53;;;;;;;10.85;46.81;97155.63;5040997;28;20496;-72
2022/02/06 11:12:54;;;;;;;2.33;1.30;;;;;;;11.11;45.91;97128.56;5028740;28;20509;-72
2022/02/06 11:15:24;;;;;;;5.10;1.60;;;;;;;10.38;47.62;97137.66;5032396;28;20469;-72
2022/02/06 11:18:06;;;;;;;8.23;1.53;;;;;;;10.64;47.59;97124.56;5031325;28;20535;-72
2022/02/06 11:20:32;;;;;;;2.60;1.50;;;;;;;10.90;46.59;97121.91;5045595;28;20548;-72
2022/02/06 11:23:02;;;;;;;7.03;1.20;;;;;;;10.81;46.67;97132.50;5042931;28;20423;-72
2022/02/06 11:25:29;;;;;;;10.20;2.13;;;;;;;10.49;47.67;97119.06;5040838;28;20423;-73
2022/02/06 11:27:56;;;;;;;6.83;1.83;;;;;;;10.64;47.45;97121.94;5032983;28;20926;-73
2022/02/06 11:30:21;;;;;;;8.23;1.23;;;;;;;10.28;48.05;97133.31;5048244;28;20551;-72
2022/02/06 11:32:47;;;;;;;1.70;1.10;;;;;;;10.39;47.68;97111.31;5028921;28;20525;-73
2022/02/06 11:35:17;;;;;;;4.27;1.60;;;;;;;10.62;47.55;97102.09;5030927;28;20308;-73
2022/02/06 11:44:13;;;;;;;4.53;1.50;;;;;;;10.26;49.17;97087.28;5032762;28;20781;-71
2022/02/06 11:46:40;;;;;;;7.13;1.43;;;;;;;10.25;49.25;97083.84;5048326;28;20507;-72
2022/02/06 11:49:13;;;;;;;3.10;1.37;;;;;;;10.18;49.11;97072.34;5045921;28;20436;-72
2022/02/06 11:51:53;;;;;;;6.20;1.33;;;;;;;10.14;49.83;97091.94;5029879;28;20520;-73
2022/02/06 11:54:32;;;;;;;8.13;1.30;;;;;;;10.32;49.89;97096.31;5030814;28;20440;-73
2022/02/06 11:57:33;;;;;;;4.50;1.50;;;;;;;10.38;50.27;97072.16;5030865;28;20612;-72
2022/02/06 12:00:06;;;;;;;3.70;1.57;;;;;;;10.60;50.06;97057.72;5031145;28;20429;-72
2022/02/06 12:02:36;;;;;;;4.20;1.40;;;;;;;10.54;49.98;97053.91;5043671;28;20509;-72
2022/02/06 12:05:28;;;;;;;1.70;0.97;;;;;;;9.93;51.52;97066.06;5069874;28;20428;-72
2022/02/06 12:08:07;;;;;;;3.73;1.30;;;;;;;10.04;50.96;97034.41;5022134;28;20455;-73
2022/02/06 12:10:32;;;;;;;5.43;1.60;;;;;;;10.13;50.97;97038.75;5034303;28;20519;-72
2022/02/06 12:13:16;;;;;;;7.23;1.63;;;;;;;10.24;52.15;97027.19;5048397;28;20425;-71
2022/02/06 12:15:58;;;;;;;3.93;1.77;;;;;;;11.25;49.59;97050.25;5019130;28;20243;-68
2022/02/06 12:18:29;;;;;;;1.40;1.10;;;;;;;10.52;49.60;97018.38;5052290;28;20484;-66
2022/02/06 12:20:57;;;;;;;6.60;1.40;;;;;;;10.77;49.04;97015.84;5034226;28;20496;-67
2022/02/06 12:23:46;;;;;;;5.20;1.57;;;;;;;10.27;50.09;96997.25;5050665;28;20433;-66
2022/02/06 12:26:27;;;;;;;2.50;1.50;;;;;;;10.47;49.57;96990.00;5040005;28;20870;-66
2022/02/06 12:29:19;;;;;;;2.40;1.50;;;;;;;10.70;49.30;96994.69;5042489;28;20886;-66
2022/02/06 12:31:58;;;;;;;2.37;1.40;;;;;;;10.23;49.93;96975.78;5030346;28;20807;-65
2022/02/06 12:37:27;;;;;;;2.83;1.50;;;;;;;10.58;49.11;96955.69;5049440;28;20435;-67
2022/02/06 12:39:56;;;;;;;2.33;1.23;;;;;;;10.38;49.70;96949.03;5013939;28;20436;-67
2022/02/06 12:42:44;;;;;;;1.70;1.00;;;;;;;10.10;49.83;96944.78;5032364;28;20425;-67
2022/02/06 12:45:17;;;;;;;1.90;0.97;;;;;;;10.34;49.38;96934.56;5033648;28;20193;-67
2022/02/06 12:47:48;;;;;;;2.60;1.07;;;;;;;10.41;49.15;96930.38;5052416;28;20435;-67
2022/02/06 12:50:27;;;;;;;2.10;1.17;;;;;;;10.53;48.92;96923.88;5052007;28;20440;-67
2022/02/06 12:52:53;;;;;;;2.83;1.10;;;;;;;10.79;48.35;96933.44;5052719;28;20436;-68
2022/02/06 12:55:21;;;;;;;2.27;1.10;;;;;;;10.88;48.13;96921.19;5052234;28;20488;-67
2022/02/06 12:57:51;;;;;;;3.60;1.30;;;;;;;10.87;48.02;96922.97;5043675;28;20265;-67
2022/02/06 13:00:41;;;;;;;1.20;1.00;;;;;;;10.67;48.89;96921.63;5063295;28;20448;-67
2022/02/06 13:03:34;;;;;;;8.73;1.30;;;;;;;10.53;49.51;96915.19;5052357;28;20778;-67
2022/02/06 13:06:11;;;;;;;2.10;1.00;;;;;;;10.71;49.80;96902.00;5052564;28;20411;-67
2022/02/06 13:08:41;;;;;;;3.58;1.08;;;;;;;10.47;50.21;96903.53;5049981;28;20423;-67
2022/02/06 13:11:13;;;;;;;2.90;1.10;;;;;;;10.12;50.81;96897.47;5052106;28;20210;-67
2022/02/06 13:14:05;;;;;;;2.63;0.97;;;;;;;10.10;51.48;96889.78;5051973;28;20765;-67
2022/02/06 13:22:49;;;;;;;1.27;0.80;;;;;;;9.96;52.44;96870.25;5046227;28;20203;-67
2022/02/06 13:30:45;;;;;;;1.53;1.10;;;;;;;10.23;52.70;96857.91;5037996;28;20468;-67
2022/02/06 13:38:55;;;;;;;2.60;1.40;;;;;;;10.24;53.02;96837.81;5027405;28;20984;-67
2022/02/06 13:41:25;;;;;;;1.90;0.80;;;;;;;10.06;53.97;96838.72;5047697;28;20465;-66
2022/02/06 13:43:54;;;;;;;2.13;0.80;;;;;;;10.12;54.00;96839.88;5036425;28;20788;-65
2022/02/06 13:46:23;;;;;;;1.07;0.80;;;;;;;10.02;54.51;96823.47;5051637;28;20471;-67
2022/02/06 13:48:49;;;;;;;1.13;0.97;;;;;;;10.03;54.61;96823.31;5043601;28;20426;-67
2022/02/06 13:51:16;;;;;;;1.10;0.80;;;;;;;9.92;55.10;96824.44;5032825;28;20457;-66
2022/02/06 13:54:02;;;;;;;1.57;0.87;;;;;;;9.67;55.50;96806.00;5051381;28;20461;-67
2022/02/06 13:56:28;;;;;;;2.67;1.47;;;;;;;9.87;55.16;96816.22;5043403;28;20484;-67
2022/02/06 13:59:06;;;;;;;1.10;0.90;;;;;;;9.56;56.06;96829.81;5051591;28;20486;-66
2022/02/06 14:01:39;;;;;;;6.00;0.97;;;;;;;9.55;56.78;96812.47;5043638;28;20441;-67
2022/02/06 14:04:26;;;;;;;1.37;0.97;;;;;;;9.44;57.04;96815.38;5031861;28;20424;-67
2022/02/06 14:07:02;;;;;;;2.77;0.97;;;;;;;9.24;57.94;96786.00;5031576;28;20415;-67
2022/02/06 14:12:05;;;;;;;5.23;0.90;;;;;;;9.60;57.07;96794.50;5031471;28;20449;-67
2022/02/06 14:14:33;;;;;;;1.83;0.80;;;;;;;9.72;57.58;96802.06;5030733;28;20430;-67
2022/02/06 14:16:59;;;;;;;1.40;0.93;;;;;;;9.35;57.97;96785.72;5031847;28;20750;-67
2022/02/06 14:19:52;;;;;;;1.63;0.93;;;;;;;9.17;58.75;96773.50;5030528;28;20437;-67
2022/02/06 14:22:47;;;;;;;2.40;0.80;;;;;;;9.10;59.67;96787.34;5029547;28;20445;-66
2022/02/06 14:25:35;;;;;;;1.20;0.80;;;;;;;9.00;59.51;96792.69;5030253;28;20987;-67
2022/02/06 14:28:23;;;;;;;1.33;1.10;;;;;;;9.43;58.80;96775.28;5024588;28;20465;-68